Time;durP1;ratioP1;P1;durP2;ratioP2;P2;SDS_P1;SDS_P2;PMS_P1;PMS_P2;Temp;Humidity;BMP_temperature;BMP_pressure;BME280_temperature;BME280_humidity;BME280_pressure;Samples;Min_cycle;Max_cycle;Signal;HPM_P1;HPM_P2
2021/12/22 00:01:30;;;;;;;24.23;11.37;;;0.90;99.90;;;;;;4164494;28;20608;-88
2021/12/22 00:03:31;;;;;;;25.60;12.03;;;0.80;99.90;;;;;;4197645;28;20204;-89
2021/12/22 00:05:32;;;;;;;33.10;12.43;;;0.80;99.90;;;;;;4180996;28;20195;-89
2021/12/22 00:07:33;;;;;;;23.60;10.83;;;0.90;99.90;;;;;;4164804;28;20184;-88
2021/12/22 00:09:33;;;;;;;28.13;11.63;;;0.90;99.90;;;;;;4197818;28;20175;-89
2021/12/22 00:11:34;;;;;;;23.80;11.23;;;0.90;99.90;;;;;;4165815;28;20190;-89
2021/12/22 00:13:35;;;;;;;23.73;11.43;;;0.80;99.90;;;;;;4164622;28;20686;-89
2021/12/22 00:15:35;;;;;;;27.97;11.93;;;0.80;99.90;;;;;;4181020;28;20762;-89
2021/12/22 00:17:36;;;;;;;22.63;11.50;;;0.80;99.90;;;;;;4164619;28;20238;-88
2021/12/22 00:19:37;;;;;;;23.83;11.07;;;0.80;99.90;;;;;;4165161;28;20172;-89
2021/12/22 00:21:38;;;;;;;24.37;11.87;;;0.90;99.90;;;;;;4197606;28;20729;-89
2021/12/22 00:23:38;;;;;;;25.20;11.43;;;0.80;99.90;;;;;;4164396;28;20180;-89
2021/12/22 00:25:39;;;;;;;30.33;12.47;;;0.80;99.90;;;;;;4198683;28;20277;-89
2021/12/22 00:27:40;;;;;;;24.90;12.00;;;0.80;99.90;;;;;;4164470;28;20664;-88
2021/12/22 00:29:45;;;;;;;29.73;12.53;;;0.80;99.90;;;;;;4197465;28;20725;-89
2021/12/22 00:31:57;;;;;;;25.70;11.07;;;0.90;99.90;;;;;;4164391;28;20164;-89
2021/12/22 00:33:58;;;;;;;25.10;10.80;;;0.90;99.90;;;;;;4197631;28;20189;-89
2021/12/22 00:35:59;;;;;;;24.43;11.10;;;0.90;99.90;;;;;;4180670;28;20754;-89
2021/12/22 00:38:00;;;;;;;24.53;11.53;;;0.90;99.90;;;;;;4164498;28;20259;-89
2021/12/22 00:40:02;;;;;;;30.40;12.00;;;0.80;99.90;;;;;;4197491;28;20175;-89
2021/12/22 00:42:03;;;;;;;28.97;11.43;;;0.70;99.90;;;;;;4197281;28;20174;-89
2021/12/22 00:44:05;;;;;;;22.83;11.67;;;0.60;99.90;;;;;;4197593;28;20175;-89
2021/12/22 00:46:06;;;;;;;31.27;11.77;;;0.50;99.90;;;;;;4181962;28;20253;-89
2021/12/22 00:48:09;;;;;;;22.30;11.43;;;0.50;99.90;;;;;;4180645;28;20548;-89
2021/12/22 00:50:09;;;;;;;22.63;11.57;;;0.50;99.90;;;;;;4180893;28;20179;-89
2021/12/22 00:52:10;;;;;;;28.73;12.57;;;0.60;99.90;;;;;;4197317;28;20197;-89
2021/12/22 00:54:11;;;;;;;25.23;11.10;;;0.60;99.90;;;;;;4164158;28;20184;-89
2021/12/22 00:56:12;;;;;;;27.93;11.53;;;0.60;99.90;;;;;;4197079;28;20238;-89
2021/12/22 00:58:12;;;;;;;25.90;12.47;;;0.70;99.90;;;;;;4164257;28;20176;-89
2021/12/22 01:00:15;;;;;;;24.33;11.27;;;0.70;99.90;;;;;;4165614;28;20180;-88
2021/12/22 01:02:19;;;;;;;22.90;11.50;;;0.70;99.90;;;;;;4167256;28;20199;-89
2021/12/22 01:04:20;;;;;;;25.63;12.30;;;0.70;99.90;;;;;;4168085;28;20174;-89
2021/12/22 01:06:21;;;;;;;31.07;11.93;;;0.70;99.90;;;;;;4183990;28;20202;-89
2021/12/22 01:08:21;;;;;;;26.30;12.90;;;0.80;99.90;;;;;;4167576;28;20715;-88
2021/12/22 01:10:29;;;;;;;26.60;11.87;;;0.80;99.90;;;;;;4184960;28;20168;-88
2021/12/22 01:12:29;;;;;;;22.90;11.37;;;0.70;99.90;;;;;;4200160;28;20174;-89
2021/12/22 01:14:31;;;;;;;27.10;11.77;;;0.70;99.90;;;;;;4167566;28;20616;-89
2021/12/22 01:16:32;;;;;;;26.17;11.67;;;0.70;99.90;;;;;;4200343;28;20163;-89
2021/12/22 01:18:35;;;;;;;26.83;11.53;;;0.60;99.90;;;;;;4167194;28;20239;-89
2021/12/22 01:20:51;;;;;;;24.40;12.17;;;0.60;99.90;;;;;;4200175;28;20163;-90
2021/12/22 01:23:01;;;;;;;26.53;11.83;;;0.60;99.90;;;;;;4184234;28;20179;-89
2021/12/22 01:25:04;;;;;;;22.10;11.67;;;0.50;99.90;;;;;;4167325;28;20191;-89
2021/12/22 01:27:08;;;;;;;24.33;11.33;;;0.50;99.90;;;;;;4183579;28;20176;-89
2021/12/22 01:29:09;;;;;;;26.27;12.43;;;0.50;99.90;;;;;;4167113;28;20207;-89
2021/12/22 01:31:15;;;;;;;21.07;12.03;;;0.50;99.90;;;;;;4199875;28;20167;-89
2021/12/22 01:33:16;;;;;;;25.63;11.90;;;0.50;99.90;;;;;;4200070;28;20182;-89
2021/12/22 01:35:20;;;;;;;27.93;12.73;;;0.50;99.90;;;;;;4183650;28;20223;-89
2021/12/22 01:37:20;;;;;;;25.77;13.30;;;0.40;99.90;;;;;;4183449;28;20180;-89
2021/12/22 01:39:21;;;;;;;31.13;13.33;;;0.40;99.90;;;;;;4199952;28;20313;-89
2021/12/22 01:41:22;;;;;;;28.67;12.83;;;0.40;99.90;;;;;;4167619;28;20255;-89
2021/12/22 01:43:23;;;;;;;24.33;13.03;;;0.40;99.90;;;;;;4166726;28;20210;-88
2021/12/22 01:45:37;;;;;;;26.37;12.73;;;0.40;99.90;;;;;;4166933;28;20654;-89
2021/12/22 01:50:09;;;;;;;32.53;13.50;;;0.30;99.90;;;;;;4216346;28;20285;-89
2021/12/22 01:52:09;;;;;;;27.67;12.83;;;0.20;99.90;;;;;;4182910;28;20659;-89
2021/12/22 01:54:19;;;;;;;29.27;12.80;;;0.20;99.90;;;;;;4199393;28;20178;-89
2021/12/22 01:56:25;;;;;;;25.77;11.93;;;0.30;99.90;;;;;;4199896;28;20237;-89
2021/12/22 01:58:34;;;;;;;26.30;12.60;;;0.40;99.90;;;;;;4166450;28;20168;-90
2021/12/22 02:00:34;;;;;;;28.87;12.30;;;0.40;99.90;;;;;;4199703;28;20174;-88
2021/12/22 02:02:35;;;;;;;27.77;12.17;;;0.40;99.90;;;;;;4166427;28;20180;-89
2021/12/22 02:04:38;;;;;;;29.73;13.10;;;0.40;99.90;;;;;;4166939;28;20168;-89
2021/12/22 02:06:44;;;;;;;29.13;12.60;;;0.40;99.90;;;;;;4183008;28;20647;-93
2021/12/22 02:08:45;;;;;;;23.40;11.60;;;0.30;99.90;;;;;;4182927;28;20190;-88
2021/12/22 02:10:48;;;;;;;24.63;11.87;;;0.30;99.90;;;;;;4182465;28;20183;-88
2021/12/22 02:12:52;;;;;;;23.67;10.97;;;0.30;99.90;;;;;;4165954;28;20180;-89
2021/12/22 02:14:53;;;;;;;29.93;11.20;;;0.30;99.90;;;;;;4182576;28;20207;-89
2021/12/22 02:16:53;;;;;;;30.83;11.57;;;0.30;99.90;;;;;;4198990;28;20179;-89
2021/12/22 02:18:55;;;;;;;29.20;11.10;;;0.40;99.90;;;;;;4166452;28;20742;-89
2021/12/22 02:20:56;;;;;;;21.77;10.63;;;0.50;99.90;;;;;;4182586;28;20183;-88
2021/12/22 02:22:58;;;;;;;21.80;9.97;;;0.40;99.90;;;;;;4166123;28;20191;-89
2021/12/22 02:25:04;;;;;;;21.60;10.67;;;0.50;99.90;;;;;;4182527;28;20188;-88
2021/12/22 02:27:12;;;;;;;24.27;10.93;;;0.50;99.90;;;;;;4182422;28;20262;-89
2021/12/22 02:29:34;;;;;;;28.40;10.10;;;0.50;99.90;;;;;;4182221;28;20185;-88
2021/12/22 02:31:41;;;;;;;27.10;10.97;;;0.50;99.90;;;;;;4166040;28;20184;-89
2021/12/22 02:33:47;;;;;;;23.17;9.93;;;0.50;99.90;;;;;;4182861;28;20171;-89
2021/12/22 02:36:40;;;;;;;22.80;10.53;;;0.60;99.90;;;;;;4182670;28;20212;-95
2021/12/22 02:38:17;;;;;;;25.33;10.03;;;0.50;99.90;;;;;;4175109;28;20184;-89
2021/12/22 02:40:25;;;;;;;21.13;10.30;;;0.60;99.90;;;;;;4182702;28;20178;-89
2021/12/22 02:42:31;;;;;;;27.67;10.80;;;0.50;99.90;;;;;;4165557;28;20241;-89
2021/12/22 02:44:31;;;;;;;25.63;10.67;;;0.50;99.90;;;;;;4182027;28;20643;-89
2021/12/22 02:46:37;;;;;;;25.87;11.57;;;0.40;99.90;;;;;;4198670;28;20183;-89
2021/12/22 02:48:38;;;;;;;29.60;11.60;;;0.40;99.90;;;;;;4182192;28;20222;-89
2021/12/22 02:50:40;;;;;;;23.37;11.60;;;0.30;99.90;;;;;;4199047;28;20167;-88
2021/12/22 02:54:55;;;;;;;23.20;11.00;;;0.30;99.90;;;;;;4215347;28;20201;-89
2021/12/22 02:57:19;;;;;;;28.70;11.90;;;0.20;99.90;;;;;;4198284;28;20693;-89
2021/12/22 02:59:45;;;;;;;24.37;11.23;;;0.20;99.90;;;;;;4181880;28;20238;-89
2021/12/22 03:04:08;;;;;;;22.77;10.90;;;0.30;99.90;;;;;;4215301;28;20257;-88
2021/12/22 03:06:12;;;;;;;21.67;10.23;;;0.40;99.90;;;;;;4181751;28;20257;-88
2021/12/22 03:08:13;;;;;;;26.73;10.73;;;0.40;99.90;;;;;;4165513;28;20206;-89
2021/12/22 03:10:17;;;;;;;22.27;10.37;;;0.40;99.90;;;;;;4165462;28;20176;-88
2021/12/22 03:12:18;;;;;;;23.63;10.43;;;0.40;99.90;;;;;;4181754;28;20184;-89
2021/12/22 03:14:20;;;;;;;23.77;10.63;;;0.30;99.90;;;;;;4181766;28;20276;-89
2021/12/22 03:16:21;;;;;;;30.83;10.93;;;0.30;99.90;;;;;;4181561;28;20268;-88
2021/12/22 03:18:22;;;;;;;22.20;9.60;;;0.40;99.90;;;;;;4198292;28;20185;-88
2021/12/22 03:20:23;;;;;;;23.23;9.30;;;0.40;99.90;;;;;;4165284;28;20184;-88
2021/12/22 03:22:24;;;;;;;19.80;9.70;;;0.40;99.90;;;;;;4181027;28;20178;-88
2021/12/22 03:24:26;;;;;;;20.90;9.40;;;0.30;99.90;;;;;;4181605;28;20251;-88
2021/12/22 03:26:29;;;;;;;20.13;9.63;;;0.30;99.90;;;;;;4197904;28;20183;-88
2021/12/22 03:28:30;;;;;;;25.37;10.57;;;0.40;99.90;;;;;;4165007;28;20549;-89
2021/12/22 03:30:32;;;;;;;25.33;9.97;;;0.40;99.90;;;;;;4198185;28;20266;-88
2021/12/22 03:32:33;;;;;;;26.63;13.20;;;0.40;99.90;;;;;;4181378;28;20172;-88
2021/12/22 03:34:34;;;;;;;30.53;13.67;;;0.40;99.90;;;;;;4198162;28;20691;-88
2021/12/22 03:36:35;;;;;;;26.27;12.93;;;0.30;99.90;;;;;;4164832;28;20242;-88
2021/12/22 03:38:37;;;;;;;23.47;11.33;;;0.20;99.90;;;;;;4181291;28;20536;-88
2021/12/22 03:40:37;;;;;;;24.50;11.57;;;0.10;99.90;;;;;;4164860;28;20176;-88
2021/12/22 03:42:38;;;;;;;26.10;10.80;;;0.00;99.90;;;;;;4197686;28;20163;-88
2021/12/22 03:44:39;;;;;;;23.60;11.90;;;-0.10;99.90;;;;;;4164724;28;20177;-88
2021/12/22 03:46:40;;;;;;;24.20;12.20;;;-0.10;99.90;;;;;;4197774;28;20591;-88
2021/12/22 03:48:42;;;;;;;25.37;11.47;;;-0.20;99.90;;;;;;4165009;28;20177;-88
2021/12/22 03:50:43;;;;;;;24.80;11.27;;;-0.20;99.90;;;;;;4197798;28;20179;-88
2021/12/22 03:52:44;;;;;;;24.93;11.63;;;-0.20;99.90;;;;;;4181199;28;20245;-88
2021/12/22 03:54:45;;;;;;;24.87;11.57;;;-0.20;99.90;;;;;;4181145;28;20215;-88
2021/12/22 03:56:45;;;;;;;24.50;11.90;;;-0.20;99.90;;;;;;4164710;28;20744;-88
2021/12/22 03:58:46;;;;;;;29.30;12.90;;;-0.10;99.90;;;;;;4198040;28;20574;-88
2021/12/22 04:00:50;;;;;;;22.17;13.17;;;-0.20;99.90;;;;;;4181340;28;20635;-88
2021/12/22 04:02:51;;;;;;;27.90;13.13;;;-0.20;99.90;;;;;;4181260;28;20257;-88
2021/12/22 04:04:52;;;;;;;26.93;14.67;;;-0.20;99.90;;;;;;4197953;28;20198;-88
2021/12/22 04:06:53;;;;;;;28.83;15.03;;;-0.10;99.90;;;;;;4164858;28;20199;-88
2021/12/22 04:08:53;;;;;;;26.13;13.57;;;-0.10;99.90;;;;;;4197838;28;20656;-88
2021/12/22 04:10:54;;;;;;;27.60;13.70;;;-0.10;99.90;;;;;;4164690;28;20194;-88
2021/12/22 04:12:56;;;;;;;41.97;14.40;;;0.00;99.90;;;;;;4164684;28;20172;-88
2021/12/22 04:14:57;;;;;;;26.87;13.97;;;0.10;99.90;;;;;;4197544;28;20296;-88
2021/12/22 04:16:58;;;;;;;30.47;12.90;;;0.30;99.90;;;;;;4181089;28;20171;-88
2021/12/22 04:18:59;;;;;;;25.83;11.87;;;0.40;99.90;;;;;;4164581;28;20657;-88
2021/12/22 04:20:59;;;;;;;25.03;12.23;;;0.20;99.90;;;;;;4181032;28;20171;-88
2021/12/22 04:23:01;;;;;;;27.00;12.80;;;0.10;99.90;;;;;;4164705;28;20207;-88
2021/12/22 04:25:03;;;;;;;30.03;13.83;;;0.20;99.90;;;;;;4197392;28;20236;-88
2021/12/22 04:27:03;;;;;;;33.83;13.63;;;0.30;99.90;;;;;;4181031;28;20238;-88
2021/12/22 04:29:04;;;;;;;27.80;13.30;;;0.10;99.90;;;;;;4180927;28;20167;-88
2021/12/22 04:31:05;;;;;;;29.90;13.77;;;0.00;99.90;;;;;;4164385;28;20192;-88
2021/12/22 04:33:06;;;;;;;26.33;13.53;;;0.00;99.90;;;;;;4197576;28;20680;-88
2021/12/22 04:35:08;;;;;;;29.40;13.90;;;0.00;99.90;;;;;;4200698;28;20214;-87
2021/12/22 04:37:08;;;;;;;29.57;13.73;;;0.00;99.90;;;;;;4200694;28;20170;-88
2021/12/22 04:39:10;;;;;;;28.17;14.93;;;-0.10;99.90;;;;;;4167678;28;20235;-87
2021/12/22 04:41:11;;;;;;;29.80;14.60;;;-0.10;99.90;;;;;;4200770;28;20187;-88
2021/12/22 04:43:12;;;;;;;28.47;13.47;;;-0.20;99.90;;;;;;4167716;28;20179;-88
2021/12/22 04:45:14;;;;;;;26.40;11.00;;;-0.30;99.90;;;;;;4200873;28;20194;-88
2021/12/22 04:47:15;;;;;;;24.43;10.80;;;-0.30;99.90;;;;;;4184007;28;20213;-92
2021/12/22 04:49:15;;;;;;;24.47;11.23;;;-0.30;99.90;;;;;;4200784;28;20167;-87
2021/12/22 04:51:29;;;;;;;25.93;9.10;;;-0.30;99.90;;;;;;4167505;28;20275;-88
2021/12/22 04:53:40;;;;;;;18.17;8.80;;;-0.30;99.90;;;;;;4184099;28;20258;-88
2021/12/22 04:55:41;;;;;;;21.23;8.80;;;-0.30;99.90;;;;;;4167250;28;20318;-88
2021/12/22 04:57:41;;;;;;;18.80;8.30;;;-0.20;99.90;;;;;;4200544;28;20582;-88
2021/12/22 04:59:42;;;;;;;19.50;8.40;;;-0.30;99.90;;;;;;4167295;28;20206;-88
2021/12/22 05:01:43;;;;;;;19.03;9.03;;;-0.30;99.90;;;;;;4167264;28;20522;-88
2021/12/22 05:03:44;;;;;;;20.43;8.57;;;-0.30;99.90;;;;;;4183898;28;20190;-87
2021/12/22 05:05:44;;;;;;;21.17;9.07;;;-0.20;99.90;;;;;;4167316;28;20263;-87
2021/12/22 05:07:47;;;;;;;20.93;8.63;;;-0.20;99.90;;;;;;4183837;28;20175;-87
2021/12/22 05:09:48;;;;;;;20.47;8.20;;;-0.30;99.90;;;;;;4167417;28;20176;-88
2021/12/22 05:11:50;;;;;;;20.23;8.20;;;-0.20;99.90;;;;;;4167277;28;20214;-88
2021/12/22 05:13:51;;;;;;;23.33;9.80;;;-0.10;99.90;;;;;;4200432;28;20602;-88
2021/12/22 05:15:52;;;;;;;21.80;10.53;;;0.60;99.90;;;;;;4183728;28;20219;-87
2021/12/22 05:19:54;;;;;;;25.67;11.33;;;1.50;99.90;;;;;;4217081;28;20182;-88
2021/12/22 05:21:55;;;;;;;22.53;10.30;;;1.60;99.90;;;;;;4167305;28;20617;-88
2021/12/22 05:23:56;;;;;;;25.50;10.00;;;1.40;99.90;;;;;;4200229;28;20183;-88
2021/12/22 05:25:56;;;;;;;22.13;10.60;;;0.70;99.90;;;;;;4183475;28;20200;-88
2021/12/22 05:27:57;;;;;;;21.70;10.37;;;0.20;99.90;;;;;;4167028;28;20164;-87
2021/12/22 05:29:58;;;;;;;28.80;10.20;;;-0.20;99.90;;;;;;4199912;28;20179;-87
2021/12/22 05:32:01;;;;;;;24.43;10.13;;;-0.50;99.90;;;;;;4183213;28;20171;-87
2021/12/22 05:34:02;;;;;;;27.27;9.50;;;-0.60;99.90;;;;;;4166681;28;20187;-88
2021/12/22 05:36:03;;;;;;;23.10;9.50;;;-0.70;99.90;;;;;;4166633;28;20224;-87
2021/12/22 05:38:04;;;;;;;19.90;9.37;;;-0.60;99.90;;;;;;4183393;28;20171;-88
2021/12/22 05:40:07;;;;;;;23.97;9.70;;;-0.70;99.90;;;;;;4183326;28;20178;-88
2021/12/22 05:42:08;;;;;;;26.23;10.10;;;-0.60;99.90;;;;;;4166771;28;20187;-88
2021/12/22 05:44:08;;;;;;;20.57;9.70;;;-0.60;99.90;;;;;;4166740;28;20270;-88
2021/12/22 05:46:09;;;;;;;24.50;9.57;;;-0.60;99.90;;;;;;4198734;28;20190;-88
2021/12/22 05:48:10;;;;;;;20.07;9.57;;;-0.60;99.90;;;;;;4183251;28;20267;-88
2021/12/22 05:50:11;;;;;;;19.90;9.27;;;-0.60;99.90;;;;;;4167276;28;20643;-88
2021/12/22 05:52:12;;;;;;;22.97;9.23;;;-0.60;99.90;;;;;;4199472;28;20194;-87
2021/12/22 05:54:13;;;;;;;20.33;9.20;;;-0.50;99.90;;;;;;4166485;28;20652;-88
2021/12/22 05:56:13;;;;;;;22.60;9.83;;;-0.30;99.90;;;;;;4166363;28;20208;-88
2021/12/22 05:58:14;;;;;;;19.53;9.33;;;-0.20;99.90;;;;;;4199352;28;20669;-88
2021/12/22 06:00:15;;;;;;;29.00;9.43;;;0.00;99.90;;;;;;4166507;28;20231;-88
2021/12/22 06:02:16;;;;;;;35.23;9.77;;;0.10;99.90;;;;;;4199360;28;20174;-87
2021/12/22 06:04:17;;;;;;;42.37;9.47;;;0.20;99.90;;;;;;4182914;28;20559;-88
2021/12/22 06:06:17;;;;;;;23.37;8.80;;;0.20;99.90;;;;;;4166137;28;20181;-88
2021/12/22 06:08:18;;;;;;;16.93;8.70;;;0.10;99.90;;;;;;4199541;28;20185;-87
2021/12/22 06:10:19;;;;;;;18.43;8.17;;;0.10;99.90;;;;;;4166141;28;20271;-88
2021/12/22 06:12:19;;;;;;;19.90;8.47;;;0.10;99.90;;;;;;4166483;28;20651;-88
2021/12/22 06:14:20;;;;;;;14.97;7.80;;;0.10;99.90;;;;;;4166263;28;20207;-88
2021/12/22 06:16:21;;;;;;;21.53;9.27;;;0.10;99.90;;;;;;4199129;28;20199;-89
2021/12/22 06:18:22;;;;;;;26.13;9.13;;;0.10;99.90;;;;;;4166044;28;20198;-88
2021/12/22 06:20:23;;;;;;;22.73;8.40;;;0.10;99.90;;;;;;4199246;28;20175;-88
2021/12/22 06:22:26;;;;;;;15.90;7.97;;;0.20;99.90;;;;;;4166208;28;20187;-88
2021/12/22 06:24:27;;;;;;;23.57;9.00;;;0.10;99.90;;;;;;4166321;28;20245;-88
2021/12/22 06:26:27;;;;;;;23.80;9.60;;;0.30;99.90;;;;;;4166209;28;20234;-88
2021/12/22 06:28:28;;;;;;;37.17;10.80;;;0.60;99.90;;;;;;4199217;28;20183;-88
2021/12/22 06:30:29;;;;;;;32.33;11.17;;;0.80;99.90;;;;;;4166128;28;20172;-88
2021/12/22 06:32:30;;;;;;;24.77;11.80;;;0.70;99.90;;;;;;4199157;28;20236;-88
2021/12/22 06:34:30;;;;;;;26.50;10.30;;;0.40;99.90;;;;;;4166073;28;20211;-88
2021/12/22 06:36:32;;;;;;;30.03;11.47;;;0.20;99.90;;;;;;4199352;28;20190;-88
2021/12/22 06:38:33;;;;;;;26.23;11.13;;;0.10;99.90;;;;;;4166043;28;20195;-88
2021/12/22 06:40:34;;;;;;;20.83;10.83;;;0.00;99.90;;;;;;4182499;28;20179;-88
2021/12/22 06:42:34;;;;;;;29.63;12.13;;;-0.10;99.90;;;;;;4198968;28;20170;-88
2021/12/22 06:44:36;;;;;;;28.67;12.83;;;-0.20;99.90;;;;;;4182327;28;20612;-88
2021/12/22 06:46:36;;;;;;;27.60;12.43;;;-0.30;99.90;;;;;;4198849;28;20155;-88
2021/12/22 06:48:37;;;;;;;29.27;13.57;;;-0.30;99.90;;;;;;4182313;28;20199;-88
2021/12/22 06:50:38;;;;;;;25.80;11.80;;;-0.30;99.90;;;;;;4199116;28;20539;-88
2021/12/22 06:52:39;;;;;;;22.57;11.00;;;-0.30;99.90;;;;;;4182255;28;20718;-88
2021/12/22 06:54:39;;;;;;;26.23;11.07;;;-0.30;99.90;;;;;;4199053;28;20618;-88
2021/12/22 06:56:40;;;;;;;25.23;11.27;;;-0.30;99.90;;;;;;4165476;28;20200;-89
2021/12/22 06:58:41;;;;;;;26.43;10.93;;;-0.40;99.90;;;;;;4198432;28;20185;-88
2021/12/22 07:00:42;;;;;;;25.17;10.20;;;-0.50;99.90;;;;;;4165547;28;20199;-88
2021/12/22 07:02:43;;;;;;;22.07;9.53;;;-0.60;99.90;;;;;;4165355;28;20172;-89
2021/12/22 07:04:53;;;;;;;24.20;10.07;;;-0.70;99.90;;;;;;4166250;28;20290;-89
2021/12/22 07:06:54;;;;;;;20.80;10.07;;;-0.70;99.90;;;;;;4165483;28;20176;-89
2021/12/22 07:08:54;;;;;;;22.33;10.53;;;-0.50;99.90;;;;;;4165448;28;20179;-89
2021/12/22 07:10:55;;;;;;;26.27;10.33;;;-0.10;99.90;;;;;;4198298;28;20266;-89
2021/12/22 07:12:56;;;;;;;27.40;11.27;;;0.50;99.90;;;;;;4165393;28;20494;-88
2021/12/22 07:14:56;;;;;;;31.93;12.67;;;0.80;99.90;;;;;;4198181;28;20209;-89
2021/12/22 07:16:57;;;;;;;22.37;9.80;;;0.60;99.90;;;;;;4165856;28;20175;-88
2021/12/22 07:18:58;;;;;;;20.00;10.00;;;0.30;99.90;;;;;;4181962;28;20249;-88
2021/12/22 07:21:00;;;;;;;28.33;11.70;;;0.00;99.90;;;;;;4198159;28;20262;-88
2021/12/22 07:23:00;;;;;;;23.80;11.73;;;-0.10;99.90;;;;;;4181644;28;20183;-89
2021/12/22 07:25:03;;;;;;;20.77;11.17;;;-0.30;99.90;;;;;;4198303;28;20718;-88
2021/12/22 07:27:04;;;;;;;26.43;11.17;;;-0.40;99.90;;;;;;4181581;28;20167;-88
2021/12/22 07:29:05;;;;;;;25.37;11.57;;;-0.40;99.90;;;;;;4181952;28;20251;-88
2021/12/22 07:31:06;;;;;;;26.97;11.60;;;-0.30;99.90;;;;;;4198109;28;20182;-88
2021/12/22 07:33:07;;;;;;;26.10;10.03;;;-0.30;99.90;;;;;;4165048;28;20211;-88
2021/12/22 07:35:23;;;;;;;20.87;8.63;;;-0.30;99.90;;;;;;4197644;28;20225;-88
2021/12/22 07:37:56;;;;;;;18.40;10.10;;;-0.20;99.90;;;;;;4181662;28;20268;-88
2021/12/22 07:39:57;;;;;;;20.53;9.47;;;-0.20;99.90;;;;;;4164577;28;20664;-88
2021/12/22 07:41:58;;;;;;;20.60;9.47;;;-0.20;99.90;;;;;;4197822;28;20194;-88
2021/12/22 07:43:59;;;;;;;26.33;9.13;;;-0.20;99.90;;;;;;4166437;28;20234;-88
2021/12/22 07:46:00;;;;;;;16.70;8.03;;;-0.20;99.90;;;;;;4198382;28;20277;-88
2021/12/22 07:48:00;;;;;;;24.23;8.70;;;-0.20;99.90;;;;;;4198842;28;20178;-95
2021/12/22 07:50:02;;;;;;;21.40;8.33;;;-0.20;99.90;;;;;;4182762;28;20274;-90
2021/12/22 07:52:03;;;;;;;26.60;9.53;;;-0.10;99.90;;;;;;4198597;28;20694;-88
2021/12/22 07:54:04;;;;;;;18.07;9.30;;;-0.10;99.90;;;;;;4181683;28;20184;-92
2021/12/22 07:56:05;;;;;;;18.97;8.67;;;-0.10;99.90;;;;;;4165720;28;20220;-88
2021/12/22 07:58:07;;;;;;;15.67;8.30;;;0.00;99.90;;;;;;4164981;28;20660;-88
2021/12/22 08:00:08;;;;;;;24.07;8.30;;;0.10;99.90;;;;;;4182068;28;20266;-87
2021/12/22 08:02:13;;;;;;;20.07;8.57;;;0.30;99.90;;;;;;4182118;28;20168;-94
2021/12/22 08:04:14;;;;;;;16.30;7.97;;;0.50;99.90;;;;;;4200174;28;20523;-88
2021/12/22 08:06:15;;;;;;;14.30;7.47;;;0.50;99.90;;;;;;4197767;28;20247;-93
2021/12/22 08:08:17;;;;;;;20.07;8.13;;;0.60;99.90;;;;;;4181300;28;20612;-88
2021/12/22 08:10:17;;;;;;;17.37;7.87;;;0.60;99.90;;;;;;4166235;28;20187;-88
2021/12/22 08:12:18;;;;;;;20.03;7.73;;;0.70;99.90;;;;;;4183322;28;20175;-88
2021/12/22 08:14:19;;;;;;;12.93;7.07;;;0.80;99.90;;;;;;4164930;28;20586;-87
2021/12/22 08:16:20;;;;;;;14.40;7.17;;;0.90;99.90;;;;;;4198415;28;20187;-87
2021/12/22 08:18:21;;;;;;;17.47;8.40;;;1.00;99.90;;;;;;4164603;28;20211;-88
2021/12/22 08:20:22;;;;;;;13.93;6.50;;;1.00;99.90;;;;;;4198088;28;20631;-88
2021/12/22 08:22:23;;;;;;;14.90;7.30;;;1.00;99.90;;;;;;4198116;28;20162;-88
2021/12/22 08:24:24;;;;;;;14.30;6.67;;;0.90;99.90;;;;;;4182840;28;20187;-88
2021/12/22 08:26:24;;;;;;;13.70;6.43;;;1.00;99.90;;;;;;4198055;28;20187;-87
2021/12/22 08:28:25;;;;;;;14.97;6.73;;;1.00;99.90;;;;;;4166327;28;20187;-88
2021/12/22 08:30:27;;;;;;;16.10;6.93;;;0.90;99.90;;;;;;4164791;28;20172;-88
2021/12/22 08:32:28;;;;;;;15.60;6.97;;;0.90;99.90;;;;;;4183661;28;20225;-87
2021/12/22 08:34:35;;;;;;;10.43;6.23;;;0.80;99.90;;;;;;4175382;28;20184;-94
2021/12/22 08:39:04;;;;;;;13.50;6.83;;;0.90;99.90;;;;;;4229720;28;20159;-95
2021/12/22 08:41:04;;;;;;;16.53;7.90;;;1.10;99.90;;;;;;4182848;28;20203;-89
2021/12/22 08:43:05;;;;;;;12.90;6.67;;;1.20;99.90;;;;;;4181894;28;20172;-88
2021/12/22 08:45:06;;;;;;;16.87;6.23;;;1.50;99.90;;;;;;4198659;28;20194;-88
2021/12/22 08:47:07;;;;;;;14.97;6.70;;;1.80;99.90;;;;;;4198046;28;20206;-96
2021/12/22 08:49:08;;;;;;;13.97;6.53;;;1.90;99.90;;;;;;4165311;28;20180;-88
2021/12/22 08:51:10;;;;;;;16.80;6.73;;;2.00;99.90;;;;;;4164896;28;20172;-88
2021/12/22 08:53:10;;;;;;;14.37;6.60;;;2.00;99.90;;;;;;4182678;28;20182;-95
2021/12/22 08:55:12;;;;;;;15.13;6.93;;;1.90;99.90;;;;;;4164606;28;20231;-88
2021/12/22 08:57:13;;;;;;;19.87;7.07;;;1.80;99.90;;;;;;4181384;28;20598;-94
2021/12/22 08:59:15;;;;;;;16.07;6.83;;;1.80;99.90;;;;;;4164597;28;20176;-88
2021/12/22 09:01:16;;;;;;;15.40;7.43;;;1.70;99.90;;;;;;4197755;28;20784;-89
2021/12/22 09:03:16;;;;;;;27.27;11.00;;;1.50;99.90;;;;;;4181578;28;20168;-87
2021/12/22 09:05:17;;;;;;;18.80;8.57;;;1.50;99.90;;;;;;4164738;28;20315;-87
2021/12/22 09:07:18;;;;;;;18.03;8.57;;;1.60;99.90;;;;;;4197572;28;20693;-88
2021/12/22 09:09:20;;;;;;;16.43;7.27;;;1.70;99.90;;;;;;4164764;28;20171;-88
2021/12/22 09:11:22;;;;;;;13.70;6.90;;;1.90;99.90;;;;;;4197470;28;20210;-88
2021/12/22 09:13:23;;;;;;;17.73;7.70;;;1.80;99.90;;;;;;4164628;28;20199;-88
2021/12/22 09:15:24;;;;;;;16.10;7.40;;;1.70;99.90;;;;;;4164716;28;20680;-89
2021/12/22 09:17:25;;;;;;;16.17;7.20;;;1.90;99.90;;;;;;4164366;28;20307;-94
2021/12/22 09:19:26;;;;;;;16.43;7.13;;;2.00;99.90;;;;;;4197028;28;20175;-87
2021/12/22 09:21:27;;;;;;;17.33;7.57;;;1.90;99.90;;;;;;4199216;28;20261;-87
2021/12/22 09:23:28;;;;;;;16.03;7.90;;;2.20;99.90;;;;;;4166942;28;20172;-88
2021/12/22 09:25:29;;;;;;;14.80;7.60;;;2.50;99.90;;;;;;4167158;28;20673;-88
2021/12/22 09:27:29;;;;;;;17.57;7.63;;;2.50;99.90;;;;;;4200455;28;20163;-87
2021/12/22 09:29:30;;;;;;;15.13;7.47;;;2.50;99.90;;;;;;4167114;28;20210;-88
2021/12/22 09:31:31;;;;;;;17.37;7.57;;;2.20;99.90;;;;;;4166870;28;20173;-88
2021/12/22 09:33:33;;;;;;;13.93;7.87;;;2.00;99.90;;;;;;4167085;28;20172;-95
2021/12/22 09:35:34;;;;;;;16.23;7.53;;;1.80;99.90;;;;;;4199771;28;20215;-88
2021/12/22 09:37:35;;;;;;;17.67;6.90;;;1.80;99.90;;;;;;4199972;28;20262;-88
2021/12/22 09:39:36;;;;;;;16.20;7.70;;;1.60;99.90;;;;;;4166907;28;20226;-88
2021/12/22 09:41:37;;;;;;;15.97;7.87;;;1.50;99.90;;;;;;4198910;28;20182;-88
2021/12/22 09:43:39;;;;;;;16.20;8.30;;;1.70;99.90;;;;;;4166631;28;20663;-88
2021/12/22 09:45:45;;;;;;;18.13;8.53;;;1.90;99.90;;;;;;4183270;28;20219;-88
2021/12/22 09:50:37;;;;;;;19.17;8.43;;;2.10;99.90;;;;;;4155123;28;20191;-88
2021/12/22 09:52:39;;;;;;;15.63;7.20;;;2.20;99.90;;;;;;4183613;28;20619;-88
2021/12/22 09:54:42;;;;;;;18.57;7.80;;;2.10;99.90;;;;;;4183198;28;20203;-88
2021/12/22 09:56:42;;;;;;;13.63;6.97;;;2.20;99.90;;;;;;4183368;28;20214;-88
2021/12/22 09:58:45;;;;;;;14.60;7.10;;;2.20;99.90;;;;;;4166929;28;20212;-88
2021/12/22 10:00:48;;;;;;;15.63;8.07;;;1.70;99.90;;;;;;4183021;28;20206;-88
2021/12/22 10:02:49;;;;;;;14.97;7.30;;;1.60;99.90;;;;;;4183488;28;20207;-88
2021/12/22 10:04:49;;;;;;;16.43;8.37;;;1.70;99.90;;;;;;4182875;28;20203;-88
2021/12/22 10:06:51;;;;;;;15.37;7.67;;;1.80;99.90;;;;;;4167548;28;20730;-88
2021/12/22 10:09:04;;;;;;;14.67;7.63;;;2.00;99.90;;;;;;4183010;28;20636;-88
2021/12/22 10:11:11;;;;;;;14.33;7.17;;;2.30;99.90;;;;;;4184041;28;20187;-88
2021/12/22 10:13:19;;;;;;;15.17;7.50;;;2.40;99.90;;;;;;4185108;28;20167;-88
2021/12/22 10:15:28;;;;;;;17.03;8.40;;;2.60;99.90;;;;;;4182735;28;20245;-88
2021/12/22 10:17:41;;;;;;;17.03;7.60;;;2.60;99.90;;;;;;4167249;28;20168;-88
2021/12/22 10:19:47;;;;;;;13.13;7.20;;;2.60;99.90;;;;;;4171600;28;20176;-87
2021/12/22 10:22:01;;;;;;;15.93;7.80;;;2.70;99.90;;;;;;4185029;28;20316;-88
2021/12/22 10:24:05;;;;;;;15.77;7.77;;;2.70;99.90;;;;;;4182955;28;20241;-88
2021/12/22 10:26:07;;;;;;;16.60;7.37;;;2.90;99.90;;;;;;4183936;28;20215;-89
2021/12/22 10:28:15;;;;;;;17.17;7.33;;;2.90;99.90;;;;;;4182870;28;20190;-89
2021/12/22 10:30:30;;;;;;;21.80;7.53;;;3.00;99.90;;;;;;4166173;28;20187;-89
2021/12/22 10:32:32;;;;;;;15.17;6.97;;;2.90;99.90;;;;;;4183985;28;20195;-89
2021/12/22 10:34:33;;;;;;;16.30;7.47;;;3.10;99.90;;;;;;4199352;28;20217;-89
2021/12/22 10:37:03;;;;;;;15.33;7.93;;;3.00;99.90;;;;;;4167604;28;20298;-89
2021/12/22 10:39:04;;;;;;;13.67;7.20;;;2.90;99.90;;;;;;4165661;28;20188;-89
2021/12/22 10:41:10;;;;;;;17.63;7.23;;;3.00;99.90;;;;;;4183541;28;20567;-89
2021/12/22 10:43:25;;;;;;;15.83;8.03;;;3.10;99.90;;;;;;4183252;28;20171;-89
2021/12/22 10:45:28;;;;;;;15.13;7.77;;;3.30;99.90;;;;;;4182919;28;20734;-89